sensor_id;sensor_type;location;lat;lon;timestamp;temperature;humidity
32348;DHT22;18821;44.800;10.326;2023-01-09T00:01:50;8.00;99.90
32348;DHT22;18821;44.800;10.326;2023-01-09T00:04:17;8.00;99.90
32348;DHT22;18821;44.800;10.326;2023-01-09T00:06:43;8.00;99.90
32348;DHT22;18821;44.800;10.326;2023-01-09T00:09:11;8.00;99.90
32348;DHT22;18821;44.800;10.326;2023-01-09T00:11:38;8.00;99.90
32348;DHT22;18821;44.800;10.326;2023-01-09T00:14:04;8.00;99.90
32348;DHT22;18821;44.800;10.326;2023-01-09T00:16:31;8.00;99.90
32348;DHT22;18821;44.800;10.326;2023-01-09T00:19:00;8.00;99.90
32348;DHT22;18821;44.800;10.326;2023-01-09T00:21:26;8.00;99.90
32348;DHT22;18821;44.800;10.326;2023-01-09T00:23:53;8.00;99.90
32348;DHT22;18821;44.800;10.326;2023-01-09T00:26:19;7.90;99.90
32348;DHT22;18821;44.800;10.326;2023-01-09T00:28:47;7.90;99.90
32348;DHT22;18821;44.800;10.326;2023-01-09T00:31:14;7.90;99.90
32348;DHT22;18821;44.800;10.326;2023-01-09T00:36:08;7.90;99.90
32348;DHT22;18821;44.800;10.326;2023-01-09T00:38:34;8.00;99.90
32348;DHT22;18821;44.800;10.326;2023-01-09T00:41:03;8.00;99.90
32348;DHT22;18821;44.800;10.326;2023-01-09T00:43:34;8.00;99.90
32348;DHT22;18821;44.800;10.326;2023-01-09T00:46:04;8.00;99.90
32348;DHT22;18821;44.800;10.326;2023-01-09T00:48:32;8.00;99.90
32348;DHT22;18821;44.800;10.326;2023-01-09T00:50:59;8.00;99.90
32348;DHT22;18821;44.800;10.326;2023-01-09T00:53:28;7.90;99.90
32348;DHT22;18821;44.800;10.326;2023-01-09T00:55:57;7.90;99.90
32348;DHT22;18821;44.800;10.326;2023-01-09T00:58:25;8.00;99.90
32348;DHT22;18821;44.800;10.326;2023-01-09T01:00:51;7.90;99.90
32348;DHT22;18821;44.800;10.326;2023-01-09T01:03:17;8.00;99.90
32348;DHT22;18821;44.800;10.326;2023-01-09T01:05:43;8.10;99.90
32348;DHT22;18821;44.800;10.326;2023-01-09T01:08:27;8.00;99.90
32348;DHT22;18821;44.800;10.326;2023-01-09T01:10:53;8.00;99.90
32348;DHT22;18821;44.800;10.326;2023-01-09T01:13:19;8.00;99.90
32348;DHT22;18821;44.800;10.326;2023-01-09T01:15:45;8.00;99.90
32348;DHT22;18821;44.800;10.326;2023-01-09T01:18:12;8.00;99.90
32348;DHT22;18821;44.800;10.326;2023-01-09T01:20:40;8.00;99.90
32348;DHT22;18821;44.800;10.326;2023-01-09T01:23:06;8.00;99.90
32348;DHT22;18821;44.800;10.326;2023-01-09T01:25:36;7.90;99.90
32348;DHT22;18821;44.800;10.326;2023-01-09T01:28:02;8.00;99.90
32348;DHT22;18821;44.800;10.326;2023-01-09T01:30:28;8.00;99.90
32348;DHT22;18821;44.800;10.326;2023-01-09T01:32:55;8.00;99.90
32348;DHT22;18821;44.800;10.326;2023-01-09T01:35:21;7.90;99.90
32348;DHT22;18821;44.800;10.326;2023-01-09T01:37:47;8.00;99.90
32348;DHT22;18821;44.800;10.326;2023-01-09T01:40:15;8.00;99.90
32348;DHT22;18821;44.800;10.326;2023-01-09T01:42:48;8.00;99.90
32348;DHT22;18821;44.800;10.326;2023-01-09T01:45:15;8.00;99.90
32348;DHT22;18821;44.800;10.326;2023-01-09T01:50:34;8.00;99.90
32348;DHT22;18821;44.800;10.326;2023-01-09T01:53:21;7.80;99.90
32348;DHT22;18821;44.800;10.326;2023-01-09T01:58:23;7.80;99.90
32348;DHT22;18821;44.800;10.326;2023-01-09T02:00:50;7.80;99.90
32348;DHT22;18821;44.800;10.326;2023-01-09T02:03:19;7.80;99.90
32348;DHT22;18821;44.800;10.326;2023-01-09T02:05:46;7.80;99.90
32348;DHT22;18821;44.800;10.326;2023-01-09T02:08:13;7.80;99.90
32348;DHT22;18821;44.800;10.326;2023-01-09T02:10:40;7.80;99.90
32348;DHT22;18821;44.800;10.326;2023-01-09T02:13:07;7.80;99.90
32348;DHT22;18821;44.800;10.326;2023-01-09T02:24:14;7.80;99.90
32348;DHT22;18821;44.800;10.326;2023-01-09T02:26:48;7.80;99.90
32348;DHT22;18821;44.800;10.326;2023-01-09T02:32:24;7.80;99.90
32348;DHT22;18821;44.800;10.326;2023-01-09T02:38:09;7.80;99.90
32348;DHT22;18821;44.800;10.326;2023-01-09T02:40:46;7.80;99.90
32348;DHT22;18821;44.800;10.326;2023-01-09T02:43:15;7.90;99.90
32348;DHT22;18821;44.800;10.326;2023-01-09T02:45:41;7.90;99.90
32348;DHT22;18821;44.800;10.326;2023-01-09T02:48:09;7.90;99.90
32348;DHT22;18821;44.800;10.326;2023-01-09T02:53:25;7.90;99.90
32348;DHT22;18821;44.800;10.326;2023-01-09T02:56:07;7.90;99.90
32348;DHT22;18821;44.800;10.326;2023-01-09T03:04:14;7.90;99.90
32348;DHT22;18821;44.800;10.326;2023-01-09T03:06:55;7.90;99.90
32348;DHT22;18821;44.800;10.326;2023-01-09T03:09:28;7.80;99.90
32348;DHT22;18821;44.800;10.326;2023-01-09T03:12:08;7.90;99.90
32348;DHT22;18821;44.800;10.326;2023-01-09T03:14:38;7.80;99.90
32348;DHT22;18821;44.800;10.326;2023-01-09T03:17:10;7.80;99.90
32348;DHT22;18821;44.800;10.326;2023-01-09T03:19:37;7.80;99.90
32348;DHT22;18821;44.800;10.326;2023-01-09T03:22:04;7.80;99.90
32348;DHT22;18821;44.800;10.326;2023-01-09T03:24:32;7.70;99.90
32348;DHT22;18821;44.800;10.326;2023-01-09T03:26:58;7.80;99.90
32348;DHT22;18821;44.800;10.326;2023-01-09T03:29:24;7.80;99.90
32348;DHT22;18821;44.800;10.326;2023-01-09T03:31:50;7.70;99.90
32348;DHT22;18821;44.800;10.326;2023-01-09T03:34:16;7.80;99.90
32348;DHT22;18821;44.800;10.326;2023-01-09T03:36:42;7.90;99.90
32348;DHT22;18821;44.800;10.326;2023-01-09T03:39:08;7.90;99.90
32348;DHT22;18821;44.800;10.326;2023-01-09T03:41:34;7.90;99.90
32348;DHT22;18821;44.800;10.326;2023-01-09T03:44:00;7.90;99.90
32348;DHT22;18821;44.800;10.326;2023-01-09T03:46:26;8.00;99.90
32348;DHT22;18821;44.800;10.326;2023-01-09T03:48:52;7.80;99.90
32348;DHT22;18821;44.800;10.326;2023-01-09T03:51:17;7.80;99.90
32348;DHT22;18821;44.800;10.326;2023-01-09T03:53:43;7.80;99.90
32348;DHT22;18821;44.800;10.326;2023-01-09T03:56:09;7.80;99.90
32348;DHT22;18821;44.800;10.326;2023-01-09T03:58:35;7.80;99.90
32348;DHT22;18821;44.800;10.326;2023-01-09T04:01:04;7.80;99.90
32348;DHT22;18821;44.800;10.326;2023-01-09T04:03:30;7.80;99.90
32348;DHT22;18821;44.800;10.326;2023-01-09T04:05:56;7.70;99.90
32348;DHT22;18821;44.800;10.326;2023-01-09T04:08:22;7.80;99.90
32348;DHT22;18821;44.800;10.326;2023-01-09T04:10:49;7.80;99.90
32348;DHT22;18821;44.800;10.326;2023-01-09T04:13:15;7.80;99.90
32348;DHT22;18821;44.800;10.326;2023-01-09T04:15:41;7.80;99.90
32348;DHT22;18821;44.800;10.326;2023-01-09T04:18:07;7.80;99.90
32348;DHT22;18821;44.800;10.326;2023-01-09T04:20:33;7.80;99.90
32348;DHT22;18821;44.800;10.326;2023-01-09T04:23:00;7.80;99.90
32348;DHT22;18821;44.800;10.326;2023-01-09T04:25:26;7.80;99.90
32348;DHT22;18821;44.800;10.326;2023-01-09T04:27:52;7.70;99.90
32348;DHT22;18821;44.800;10.326;2023-01-09T04:30:18;7.70;99.90
32348;DHT22;18821;44.800;10.326;2023-01-09T04:32:44;7.70;99.90
32348;DHT22;18821;44.800;10.326;2023-01-09T04:35:10;7.70;99.90
32348;DHT22;18821;44.800;10.326;2023-01-09T04:37:36;7.70;99.90
32348;DHT22;18821;44.800;10.326;2023-01-09T04:40:04;7.70;99.90
32348;DHT22;18821;44.800;10.326;2023-01-09T04:42:33;7.70;99.90
32348;DHT22;18821;44.800;10.326;2023-01-09T04:44:59;7.70;99.90
32348;DHT22;18821;44.800;10.326;2023-01-09T04:47:25;7.70;99.90
32348;DHT22;18821;44.800;10.326;2023-01-09T04:49:51;7.70;99.90
32348;DHT22;18821;44.800;10.326;2023-01-09T04:52:17;7.70;99.90
32348;DHT22;18821;44.800;10.326;2023-01-09T04:54:43;7.60;99.90
32348;DHT22;18821;44.800;10.326;2023-01-09T04:57:09;7.60;99.90
32348;DHT22;18821;44.800;10.326;2023-01-09T04:59:35;7.60;99.90
32348;DHT22;18821;44.800;10.326;2023-01-09T05:02:01;7.70;99.90
32348;DHT22;18821;44.800;10.326;2023-01-09T05:04:27;7.70;99.90
32348;DHT22;18821;44.800;10.326;2023-01-09T05:06:53;7.80;99.90
32348;DHT22;18821;44.800;10.326;2023-01-09T05:09:19;7.80;99.90
32348;DHT22;18821;44.800;10.326;2023-01-09T05:11:45;7.90;99.90
32348;DHT22;18821;44.800;10.326;2023-01-09T05:14:11;7.90;99.90
32348;DHT22;18821;44.800;10.326;2023-01-09T05:16:38;7.90;99.90
32348;DHT22;18821;44.800;10.326;2023-01-09T05:19:04;8.00;99.90
32348;DHT22;18821;44.800;10.326;2023-01-09T05:21:30;8.00;99.90
32348;DHT22;18821;44.800;10.326;2023-01-09T05:23:56;8.00;99.90
32348;DHT22;18821;44.800;10.326;2023-01-09T05:26:22;8.00;99.90
32348;DHT22;18821;44.800;10.326;2023-01-09T05:28:52;7.90;99.90
32348;DHT22;18821;44.800;10.326;2023-01-09T05:31:21;7.90;99.90
32348;DHT22;18821;44.800;10.326;2023-01-09T05:33:48;7.90;99.90
32348;DHT22;18821;44.800;10.326;2023-01-09T05:36:14;8.00;99.90
32348;DHT22;18821;44.800;10.326;2023-01-09T05:38:40;7.90;99.90
32348;DHT22;18821;44.800;10.326;2023-01-09T05:41:06;7.90;99.90
32348;DHT22;18821;44.800;10.326;2023-01-09T05:43:32;8.00;99.90
32348;DHT22;18821;44.800;10.326;2023-01-09T05:45:58;8.00;99.90
32348;DHT22;18821;44.800;10.326;2023-01-09T05:48:24;8.00;99.90
32348;DHT22;18821;44.800;10.326;2023-01-09T05:50:50;7.90;99.90
32348;DHT22;18821;44.800;10.326;2023-01-09T05:53:16;7.80;99.90
32348;DHT22;18821;44.800;10.326;2023-01-09T05:55:43;7.80;99.90
32348;DHT22;18821;44.800;10.326;2023-01-09T05:58:09;7.80;99.90
32348;DHT22;18821;44.800;10.326;2023-01-09T06:00:35;7.80;99.90
32348;DHT22;18821;44.800;10.326;2023-01-09T06:03:00;7.80;99.90
32348;DHT22;18821;44.800;10.326;2023-01-09T06:05:26;7.90;99.90
32348;DHT22;18821;44.800;10.326;2023-01-09T06:07:52;8.00;99.90
32348;DHT22;18821;44.800;10.326;2023-01-09T06:10:18;7.90;99.90
32348;DHT22;18821;44.800;10.326;2023-01-09T06:12:49;7.80;99.90
32348;DHT22;18821;44.800;10.326;2023-01-09T06:15:16;7.80;99.90
32348;DHT22;18821;44.800;10.326;2023-01-09T06:17:42;7.80;99.90
32348;DHT22;18821;44.800;10.326;2023-01-09T06:20:09;7.80;99.90
32348;DHT22;18821;44.800;10.326;2023-01-09T06:22:35;7.90;99.90
32348;DHT22;18821;44.800;10.326;2023-01-09T06:25:02;7.90;99.90
32348;DHT22;18821;44.800;10.326;2023-01-09T06:27:28;7.80;99.90
32348;DHT22;18821;44.800;10.326;2023-01-09T06:29:54;7.90;99.90
32348;DHT22;18821;44.800;10.326;2023-01-09T06:32:20;7.90;99.90
32348;DHT22;18821;44.800;10.326;2023-01-09T06:34:45;7.90;99.90
32348;DHT22;18821;44.800;10.326;2023-01-09T06:37:11;7.80;99.90
32348;DHT22;18821;44.800;10.326;2023-01-09T06:39:37;7.80;99.90
32348;DHT22;18821;44.800;10.326;2023-01-09T06:42:03;7.80;99.90
32348;DHT22;18821;44.800;10.326;2023-01-09T06:44:29;7.80;99.90
32348;DHT22;18821;44.800;10.326;2023-01-09T06:46:57;7.90;99.90
32348;DHT22;18821;44.800;10.326;2023-01-09T06:49:23;8.00;99.90
32348;DHT22;18821;44.800;10.326;2023-01-09T06:51:50;8.00;99.90
32348;DHT22;18821;44.800;10.326;2023-01-09T06:54:17;8.10;99.90
32348;DHT22;18821;44.800;10.326;2023-01-09T06:56:44;8.10;99.90
32348;DHT22;18821;44.800;10.326;2023-01-09T06:59:10;8.00;99.90
32348;DHT22;18821;44.800;10.326;2023-01-09T07:01:36;8.00;99.90
32348;DHT22;18821;44.800;10.326;2023-01-09T07:04:05;8.00;99.90
32348;DHT22;18821;44.800;10.326;2023-01-09T07:06:31;8.00;99.90
32348;DHT22;18821;44.800;10.326;2023-01-09T07:08:57;8.00;99.90
32348;DHT22;18821;44.800;10.326;2023-01-09T07:11:23;8.00;99.90
32348;DHT22;18821;44.800;10.326;2023-01-09T07:13:49;8.00;99.90
32348;DHT22;18821;44.800;10.326;2023-01-09T07:16:15;8.00;99.90
32348;DHT22;18821;44.800;10.326;2023-01-09T07:18:41;8.10;99.90
32348;DHT22;18821;44.800;10.326;2023-01-09T07:21:07;8.00;99.90
32348;DHT22;18821;44.800;10.326;2023-01-09T07:23:33;7.90;99.90
32348;DHT22;18821;44.800;10.326;2023-01-09T07:25:59;7.90;99.90
32348;DHT22;18821;44.800;10.326;2023-01-09T07:28:25;7.90;99.90
32348;DHT22;18821;44.800;10.326;2023-01-09T07:30:51;7.80;99.90
32348;DHT22;18821;44.800;10.326;2023-01-09T07:33:18;7.80;99.90
32348;DHT22;18821;44.800;10.326;2023-01-09T07:35:43;7.80;99.90
32348;DHT22;18821;44.800;10.326;2023-01-09T07:38:09;7.90;99.90
32348;DHT22;18821;44.800;10.326;2023-01-09T07:40:35;8.00;99.90
32348;DHT22;18821;44.800;10.326;2023-01-09T07:43:01;8.00;99.90
32348;DHT22;18821;44.800;10.326;2023-01-09T07:45:27;8.00;99.90
32348;DHT22;18821;44.800;10.326;2023-01-09T07:47:53;8.10;99.90
32348;DHT22;18821;44.800;10.326;2023-01-09T07:50:19;8.00;99.90
32348;DHT22;18821;44.800;10.326;2023-01-09T07:52:46;8.00;99.90
32348;DHT22;18821;44.800;10.326;2023-01-09T07:55:12;7.90;99.90
32348;DHT22;18821;44.800;10.326;2023-01-09T07:57:38;7.80;99.90
32348;DHT22;18821;44.800;10.326;2023-01-09T08:00:05;7.80;99.90
32348;DHT22;18821;44.800;10.326;2023-01-09T08:02:37;7.90;99.90
32348;DHT22;18821;44.800;10.326;2023-01-09T08:05:03;7.90;99.90
32348;DHT22;18821;44.800;10.326;2023-01-09T08:07:29;7.90;99.90
32348;DHT22;18821;44.800;10.326;2023-01-09T08:09:55;7.80;99.90
32348;DHT22;18821;44.800;10.326;2023-01-09T08:12:21;7.80;99.90
32348;DHT22;18821;44.800;10.326;2023-01-09T08:14:47;7.90;99.90
32348;DHT22;18821;44.800;10.326;2023-01-09T08:17:12;7.90;99.90
32348;DHT22;18821;44.800;10.326;2023-01-09T08:19:39;7.90;99.90
32348;DHT22;18821;44.800;10.326;2023-01-09T08:22:06;7.90;99.90
32348;DHT22;18821;44.800;10.326;2023-01-09T08:24:32;8.00;99.90
32348;DHT22;18821;44.800;10.326;2023-01-09T08:26:58;8.00;99.90
32348;DHT22;18821;44.800;10.326;2023-01-09T08:29:24;8.00;99.90
32348;DHT22;18821;44.800;10.326;2023-01-09T08:31:50;7.90;99.90
32348;DHT22;18821;44.800;10.326;2023-01-09T08:34:16;7.90;99.90
32348;DHT22;18821;44.800;10.326;2023-01-09T08:36:42;7.90;99.90
32348;DHT22;18821;44.800;10.326;2023-01-09T08:39:08;7.90;99.90
32348;DHT22;18821;44.800;10.326;2023-01-09T08:41:34;7.90;99.90
32348;DHT22;18821;44.800;10.326;2023-01-09T08:44:18;7.90;99.90
32348;DHT22;18821;44.800;10.326;2023-01-09T08:47:03;7.90;99.90
32348;DHT22;18821;44.800;10.326;2023-01-09T08:49:36;8.00;99.90
32348;DHT22;18821;44.800;10.326;2023-01-09T08:52:03;8.00;99.90
32348;DHT22;18821;44.800;10.326;2023-01-09T08:54:29;8.10;99.90
32348;DHT22;18821;44.800;10.326;2023-01-09T08:56:55;8.20;99.90
32348;DHT22;18821;44.800;10.326;2023-01-09T08:59:21;8.20;99.90
32348;DHT22;18821;44.800;10.326;2023-01-09T09:01:47;8.10;99.90
32348;DHT22;18821;44.800;10.326;2023-01-09T09:04:14;8.10;99.90
32348;DHT22;18821;44.800;10.326;2023-01-09T09:06:40;8.00;99.90
32348;DHT22;18821;44.800;10.326;2023-01-09T09:09:06;7.90;99.90
32348;DHT22;18821;44.800;10.326;2023-01-09T09:11:34;8.00;99.90
32348;DHT22;18821;44.800;10.326;2023-01-09T09:14:01;8.00;99.90
32348;DHT22;18821;44.800;10.326;2023-01-09T09:16:46;8.00;99.90
32348;DHT22;18821;44.800;10.326;2023-01-09T09:19:11;8.00;99.90
32348;DHT22;18821;44.800;10.326;2023-01-09T09:21:37;8.20;99.90
32348;DHT22;18821;44.800;10.326;2023-01-09T09:24:03;8.40;99.90
32348;DHT22;18821;44.800;10.326;2023-01-09T09:26:29;8.60;99.90
32348;DHT22;18821;44.800;10.326;2023-01-09T09:28:55;8.60;99.90
32348;DHT22;18821;44.800;10.326;2023-01-09T09:31:21;8.70;99.90
32348;DHT22;18821;44.800;10.326;2023-01-09T09:33:47;8.80;99.90
32348;DHT22;18821;44.800;10.326;2023-01-09T09:36:13;8.80;99.90
32348;DHT22;18821;44.800;10.326;2023-01-09T09:38:39;8.90;99.90
32348;DHT22;18821;44.800;10.326;2023-01-09T09:47:42;8.50;99.90
32348;DHT22;18821;44.800;10.326;2023-01-09T09:53:37;8.50;99.90
32348;DHT22;18821;44.800;10.326;2023-01-09T09:56:10;8.50;99.90
32348;DHT22;18821;44.800;10.326;2023-01-09T10:01:09;8.30;99.90
32348;DHT22;18821;44.800;10.326;2023-01-09T10:03:46;8.30;99.90
32348;DHT22;18821;44.800;10.326;2023-01-09T10:06:33;8.30;99.90
32348;DHT22;18821;44.800;10.326;2023-01-09T10:14:47;8.40;99.90
32348;DHT22;18821;44.800;10.326;2023-01-09T10:25:42;8.50;99.90
32348;DHT22;18821;44.800;10.326;2023-01-09T10:30:59;8.50;99.90
32348;DHT22;18821;44.800;10.326;2023-01-09T10:36:26;8.50;99.90
32348;DHT22;18821;44.800;10.326;2023-01-09T10:38:57;8.60;99.90
32348;DHT22;18821;44.800;10.326;2023-01-09T10:41:48;8.60;99.90
32348;DHT22;18821;44.800;10.326;2023-01-09T10:44:22;8.70;99.90
32348;DHT22;18821;44.800;10.326;2023-01-09T10:46:59;8.90;99.90
32348;DHT22;18821;44.800;10.326;2023-01-09T10:49:26;9.00;99.90
32348;DHT22;18821;44.800;10.326;2023-01-09T10:52:16;9.10;99.90
32348;DHT22;18821;44.800;10.326;2023-01-09T10:54:57;9.20;99.90
32348;DHT22;18821;44.800;10.326;2023-01-09T10:57:42;9.20;99.90
32348;DHT22;18821;44.800;10.326;2023-01-09T11:00:20;9.00;99.90
32348;DHT22;18821;44.800;10.326;2023-01-09T11:02:47;9.20;99.90
32348;DHT22;18821;44.800;10.326;2023-01-09T11:05:25;9.20;99.90
32348;DHT22;18821;44.800;10.326;2023-01-09T11:10:50;9.30;99.90
32348;DHT22;18821;44.800;10.326;2023-01-09T11:13:30;9.50;99.90
32348;DHT22;18821;44.800;10.326;2023-01-09T11:18:29;9.60;99.90
32348;DHT22;18821;44.800;10.326;2023-01-09T11:20:56;9.80;99.90
32348;DHT22;18821;44.800;10.326;2023-01-09T11:23:36;9.90;99.90
32348;DHT22;18821;44.800;10.326;2023-01-09T11:26:02;9.70;99.90
32348;DHT22;18821;44.800;10.326;2023-01-09T11:28:28;9.90;99.90
32348;DHT22;18821;44.800;10.326;2023-01-09T11:31:01;10.20;99.90
32348;DHT22;18821;44.800;10.326;2023-01-09T11:33:35;10.40;99.90
32348;DHT22;18821;44.800;10.326;2023-01-09T11:36:06;10.50;99.90
32348;DHT22;18821;44.800;10.326;2023-01-09T11:38:57;10.60;99.90
32348;DHT22;18821;44.800;10.326;2023-01-09T11:41:31;10.70;99.90
32348;DHT22;18821;44.800;10.326;2023-01-09T11:43:59;10.70;99.90
32348;DHT22;18821;44.800;10.326;2023-01-09T11:49:00;10.40;99.90
32348;DHT22;18821;44.800;10.326;2023-01-09T11:51:29;10.40;99.90
32348;DHT22;18821;44.800;10.326;2023-01-09T11:54:31;10.70;99.90
32348;DHT22;18821;44.800;10.326;2023-01-09T11:56:59;11.00;99.90
32348;DHT22;18821;44.800;10.326;2023-01-09T11:59:27;11.00;99.90
32348;DHT22;18821;44.800;10.326;2023-01-09T12:04:34;10.60;99.90
32348;DHT22;18821;44.800;10.326;2023-01-09T12:12:55;10.40;99.90
32348;DHT22;18821;44.800;10.326;2023-01-09T12:15:43;10.50;99.90
32348;DHT22;18821;44.800;10.326;2023-01-09T12:18:21;10.50;99.90
32348;DHT22;18821;44.800;10.326;2023-01-09T12:23:20;10.30;99.90
32348;DHT22;18821;44.800;10.326;2023-01-09T12:26:27;10.50;99.90
32348;DHT22;18821;44.800;10.326;2023-01-09T12:31:53;10.30;99.90
32348;DHT22;18821;44.800;10.326;2023-01-09T12:40:22;10.30;99.90
32348;DHT22;18821;44.800;10.326;2023-01-09T12:54:29;10.20;99.90
32348;DHT22;18821;44.800;10.326;2023-01-09T12:57:34;10.10;99.90
32348;DHT22;18821;44.800;10.326;2023-01-09T13:00:36;10.10;99.90
32348;DHT22;18821;44.800;10.326;2023-01-09T13:03:43;10.10;99.90
32348;DHT22;18821;44.800;10.326;2023-01-09T13:06:15;10.10;99.90
32348;DHT22;18821;44.800;10.326;2023-01-09T13:08:51;10.20;99.90
32348;DHT22;18821;44.800;10.326;2023-01-09T13:11:31;10.20;99.90
32348;DHT22;18821;44.800;10.326;2023-01-09T13:16:48;10.20;99.90
32348;DHT22;18821;44.800;10.326;2023-01-09T13:19:27;10.40;99.90
32348;DHT22;18821;44.800;10.326;2023-01-09T13:21:56;10.50;99.90
32348;DHT22;18821;44.800;10.326;2023-01-09T13:27:15;10.80;99.90
32348;DHT22;18821;44.800;10.326;2023-01-09T13:29:46;11.00;99.90
32348;DHT22;18821;44.800;10.326;2023-01-09T13:32:39;11.10;99.90
32348;DHT22;18821;44.800;10.326;2023-01-09T13:35:12;11.30;99.90
32348;DHT22;18821;44.800;10.326;2023-01-09T13:37:39;11.30;99.90
32348;DHT22;18821;44.800;10.326;2023-01-09T13:40:25;11.20;99.90
32348;DHT22;18821;44.800;10.326;2023-01-09T13:45:26;11.10;99.90
32348;DHT22;18821;44.800;10.326;2023-01-09T13:50:44;11.20;99.90
32348;DHT22;18821;44.800;10.326;2023-01-09T13:56:05;11.00;99.90
32348;DHT22;18821;44.800;10.326;2023-01-09T14:04:26;11.30;99.90
32348;DHT22;18821;44.800;10.326;2023-01-09T14:09:53;11.00;99.90
32348;DHT22;18821;44.800;10.326;2023-01-09T14:12:21;11.00;99.90
32348;DHT22;18821;44.800;10.326;2023-01-09T14:14:48;11.00;99.90
32348;DHT22;18821;44.800;10.326;2023-01-09T14:17:28;10.90;99.90
32348;DHT22;18821;44.800;10.326;2023-01-09T14:19:57;10.90;99.90
32348;DHT22;18821;44.800;10.326;2023-01-09T14:22:29;10.90;99.90
32348;DHT22;18821;44.800;10.326;2023-01-09T14:25:06;10.80;99.90
32348;DHT22;18821;44.800;10.326;2023-01-09T14:44:24;10.60;99.90
32348;DHT22;18821;44.800;10.326;2023-01-09T14:46:52;10.50;99.90
32348;DHT22;18821;44.800;10.326;2023-01-09T14:51:54;10.40;99.90
32348;DHT22;18821;44.800;10.326;2023-01-09T14:54:39;10.40;99.90
32348;DHT22;18821;44.800;10.326;2023-01-09T14:57:25;10.20;99.90
32348;DHT22;18821;44.800;10.326;2023-01-09T14:59:59;10.30;99.90
32348;DHT22;18821;44.800;10.326;2023-01-09T15:02:33;10.20;99.90
32348;DHT22;18821;44.800;10.326;2023-01-09T15:05:08;10.10;99.90
32348;DHT22;18821;44.800;10.326;2023-01-09T15:07:44;10.00;99.90
32348;DHT22;18821;44.800;10.326;2023-01-09T15:12:44;9.90;99.90
32348;DHT22;18821;44.800;10.326;2023-01-09T15:15:12;9.90;99.90
32348;DHT22;18821;44.800;10.326;2023-01-09T15:17:39;9.90;99.90
32348;DHT22;18821;44.800;10.326;2023-01-09T15:20:17;9.90;99.90
32348;DHT22;18821;44.800;10.326;2023-01-09T15:22:48;9.90;99.90
32348;DHT22;18821;44.800;10.326;2023-01-09T15:25:27;9.80;99.90
32348;DHT22;18821;44.800;10.326;2023-01-09T15:27:56;9.70;99.90
32348;DHT22;18821;44.800;10.326;2023-01-09T15:32:55;9.70;99.90
32348;DHT22;18821;44.800;10.326;2023-01-09T15:35:22;9.70;99.90
32348;DHT22;18821;44.800;10.326;2023-01-09T15:37:51;9.60;99.90
32348;DHT22;18821;44.800;10.326;2023-01-09T15:40:21;9.60;99.90
32348;DHT22;18821;44.800;10.326;2023-01-09T15:42:51;9.50;99.90
32348;DHT22;18821;44.800;10.326;2023-01-09T15:45:28;9.50;99.90
32348;DHT22;18821;44.800;10.326;2023-01-09T15:50:40;9.40;99.90
32348;DHT22;18821;44.800;10.326;2023-01-09T15:53:14;9.30;99.90
32348;DHT22;18821;44.800;10.326;2023-01-09T15:55:41;9.30;99.90
32348;DHT22;18821;44.800;10.326;2023-01-09T15:58:28;9.20;99.90
32348;DHT22;18821;44.800;10.326;2023-01-09T16:00:57;9.20;99.90
32348;DHT22;18821;44.800;10.326;2023-01-09T16:03:24;9.10;99.90
32348;DHT22;18821;44.800;10.326;2023-01-09T16:05:55;9.10;99.90
32348;DHT22;18821;44.800;10.326;2023-01-09T16:08:33;9.10;99.90
32348;DHT22;18821;44.800;10.326;2023-01-09T16:11:03;9.00;99.90
32348;DHT22;18821;44.800;10.326;2023-01-09T16:13:31;9.00;99.90
32348;DHT22;18821;44.800;10.326;2023-01-09T16:16:00;9.00;99.90
32348;DHT22;18821;44.800;10.326;2023-01-09T16:18:38;8.90;99.90
32348;DHT22;18821;44.800;10.326;2023-01-09T16:26:33;8.90;99.90
32348;DHT22;18821;44.800;10.326;2023-01-09T16:29:25;8.80;99.90
32348;DHT22;18821;44.800;10.326;2023-01-09T16:31:58;8.80;99.90
32348;DHT22;18821;44.800;10.326;2023-01-09T16:34:24;8.80;99.90
32348;DHT22;18821;44.800;10.326;2023-01-09T16:36:50;8.80;99.90
32348;DHT22;18821;44.800;10.326;2023-01-09T16:39:16;8.80;99.90
32348;DHT22;18821;44.800;10.326;2023-01-09T16:41:42;8.70;99.90
32348;DHT22;18821;44.800;10.326;2023-01-09T16:44:26;8.70;99.90
32348;DHT22;18821;44.800;10.326;2023-01-09T16:46:52;8.70;99.90
32348;DHT22;18821;44.800;10.326;2023-01-09T16:49:20;8.70;99.90
32348;DHT22;18821;44.800;10.326;2023-01-09T16:51:48;8.70;99.90
32348;DHT22;18821;44.800;10.326;2023-01-09T16:54:15;8.70;99.90
32348;DHT22;18821;44.800;10.326;2023-01-09T16:56:43;8.70;99.90
32348;DHT22;18821;44.800;10.326;2023-01-09T16:59:15;8.60;99.90
32348;DHT22;18821;44.800;10.326;2023-01-09T17:01:42;8.50;99.90
32348;DHT22;18821;44.800;10.326;2023-01-09T17:04:11;8.50;99.90
32348;DHT22;18821;44.800;10.326;2023-01-09T17:06:37;8.50;99.90
32348;DHT22;18821;44.800;10.326;2023-01-09T17:09:04;8.40;99.90
32348;DHT22;18821;44.800;10.326;2023-01-09T17:11:30;8.40;99.90
32348;DHT22;18821;44.800;10.326;2023-01-09T17:13:59;8.40;99.90
32348;DHT22;18821;44.800;10.326;2023-01-09T17:16:27;8.40;99.90
32348;DHT22;18821;44.800;10.326;2023-01-09T17:18:53;8.40;99.90
32348;DHT22;18821;44.800;10.326;2023-01-09T17:21:22;8.40;99.90
32348;DHT22;18821;44.800;10.326;2023-01-09T17:23:48;8.30;25.30
32348;DHT22;18821;44.800;10.326;2023-01-09T17:26:34;8.30;27.20
32348;DHT22;18821;44.800;10.326;2023-01-09T17:29:19;8.20;27.90
32348;DHT22;18821;44.800;10.326;2023-01-09T17:31:45;8.10;34.10
32348;DHT22;18821;44.800;10.326;2023-01-09T17:34:11;8.10;39.50
32348;DHT22;18821;44.800;10.326;2023-01-09T17:36:37;8.10;45.60
32348;DHT22;18821;44.800;10.326;2023-01-09T17:39:03;8.10;47.10
32348;DHT22;18821;44.800;10.326;2023-01-09T17:41:31;8.10;50.00
32348;DHT22;18821;44.800;10.326;2023-01-09T17:43:58;8.00;52.80
32348;DHT22;18821;44.800;10.326;2023-01-09T17:46:33;8.00;55.40
32348;DHT22;18821;44.800;10.326;2023-01-09T17:49:00;8.00;54.10
32348;DHT22;18821;44.800;10.326;2023-01-09T17:51:27;7.90;52.70
32348;DHT22;18821;44.800;10.326;2023-01-09T17:53:54;7.90;60.40
32348;DHT22;18821;44.800;10.326;2023-01-09T17:56:29;7.90;62.30
32348;DHT22;18821;44.800;10.326;2023-01-09T17:58:57;7.90;61.10
32348;DHT22;18821;44.800;10.326;2023-01-09T18:01:26;7.90;64.80
32348;DHT22;18821;44.800;10.326;2023-01-09T18:03:52;7.90;65.40
32348;DHT22;18821;44.800;10.326;2023-01-09T18:06:20;7.90;68.20
32348;DHT22;18821;44.800;10.326;2023-01-09T18:08:47;7.80;61.70
32348;DHT22;18821;44.800;10.326;2023-01-09T18:11:16;7.80;66.70
32348;DHT22;18821;44.800;10.326;2023-01-09T18:13:44;7.80;65.20
32348;DHT22;18821;44.800;10.326;2023-01-09T18:16:15;7.70;63.50
32348;DHT22;18821;44.800;10.326;2023-01-09T18:18:41;7.70;66.70
32348;DHT22;18821;44.800;10.326;2023-01-09T18:21:16;7.60;65.20